sensor_id;sensor_type;location;lat;lon;timestamp;P1;P2;P0
49064;PMS5003;34876;51.464;-0.150;2024-01-11T00:00:37;3;1;
49064;PMS5003;34876;51.464;-0.150;2024-01-11T00:03:11;3;3;
49064;PMS5003;34876;51.464;-0.150;2024-01-11T00:05:43;0;0;
49064;PMS5003;34876;51.464;-0.150;2024-01-11T00:08:13;1;1;
49064;PMS5003;34876;51.464;-0.150;2024-01-11T00:10:43;2;2;
49064;PMS5003;34876;51.464;-0.150;2024-01-11T00:13:12;1;1;
49064;PMS5003;34876;51.464;-0.150;2024-01-11T00:15:47;0;0;
49064;PMS5003;34876;51.464;-0.150;2024-01-11T00:18:18;2;2;
49064;PMS5003;34876;51.464;-0.150;2024-01-11T00:20:49;2;2;
49064;PMS5003;34876;51.464;-0.150;2024-01-11T00:23:19;2;2;
49064;PMS5003;34876;51.464;-0.150;2024-01-11T00:25:50;5;3;
49064;PMS5003;34876;51.464;-0.150;2024-01-11T00:28:20;2;1;
49064;PMS5003;34876;51.464;-0.150;2024-01-11T00:30:50;3;3;
49064;PMS5003;34876;51.464;-0.150;2024-01-11T00:33:20;1;1;
49064;PMS5003;34876;51.464;-0.150;2024-01-11T00:35:49;3;3;
49064;PMS5003;34876;51.464;-0.150;2024-01-11T00:38:21;3;3;
49064;PMS5003;34876;51.464;-0.150;2024-01-11T00:40:55;2;2;
49064;PMS5003;34876;51.464;-0.150;2024-01-11T00:43:24;3;3;
49064;PMS5003;34876;51.464;-0.150;2024-01-11T00:45:53;1;1;
49064;PMS5003;34876;51.464;-0.150;2024-01-11T00:48:24;2;2;
49064;PMS5003;34876;51.464;-0.150;2024-01-11T00:50:53;3;3;
49064;PMS5003;34876;51.464;-0.150;2024-01-11T00:53:22;3;2;
49064;PMS5003;34876;51.464;-0.150;2024-01-11T00:55:54;1;1;
49064;PMS5003;34876;51.464;-0.150;2024-01-11T00:58:23;5;5;
49064;PMS5003;34876;51.464;-0.150;2024-01-11T01:03:22;15;14;
49064;PMS5003;34876;51.464;-0.150;2024-01-11T01:05:52;12;10;
49064;PMS5003;34876;51.464;-0.150;2024-01-11T01:08:22;13;13;
49064;PMS5003;34876;51.464;-0.150;2024-01-11T01:10:50;15;15;
49064;PMS5003;34876;51.464;-0.150;2024-01-11T01:13:20;14;14;
49064;PMS5003;34876;51.464;-0.150;2024-01-11T01:15:51;15;13;
49064;PMS5003;34876;51.464;-0.150;2024-01-11T01:18:36;14;12;
49064;PMS5003;34876;51.464;-0.150;2024-01-11T01:21:06;14;13;
49064;PMS5003;34876;51.464;-0.150;2024-01-11T01:23:36;13;13;
49064;PMS5003;34876;51.464;-0.150;2024-01-11T01:26:06;17;16;
49064;PMS5003;34876;51.464;-0.150;2024-01-11T01:28:36;13;13;
49064;PMS5003;34876;51.464;-0.150;2024-01-11T01:31:06;11;11;
49064;PMS5003;34876;51.464;-0.150;2024-01-11T01:33:35;14;11;
49064;PMS5003;34876;51.464;-0.150;2024-01-11T01:36:07;15;11;
49064;PMS5003;34876;51.464;-0.150;2024-01-11T01:38:38;15;15;
49064;PMS5003;34876;51.464;-0.150;2024-01-11T01:41:08;12;12;
49064;PMS5003;34876;51.464;-0.150;2024-01-11T01:43:38;16;13;
49064;PMS5003;34876;51.464;-0.150;2024-01-11T01:46:08;12;12;
49064;PMS5003;34876;51.464;-0.150;2024-01-11T01:48:37;13;10;
49064;PMS5003;34876;51.464;-0.150;2024-01-11T01:51:10;13;13;
49064;PMS5003;34876;51.464;-0.150;2024-01-11T01:53:40;10;10;
49064;PMS5003;34876;51.464;-0.150;2024-01-11T01:56:12;13;12;
49064;PMS5003;34876;51.464;-0.150;2024-01-11T01:58:48;17;15;
49064;PMS5003;34876;51.464;-0.150;2024-01-11T02:01:26;16;15;
49064;PMS5003;34876;51.464;-0.150;2024-01-11T02:03:54;13;13;
49064;PMS5003;34876;51.464;-0.150;2024-01-11T02:06:24;14;12;
49064;PMS5003;34876;51.464;-0.150;2024-01-11T02:08:55;16;16;
49064;PMS5003;34876;51.464;-0.150;2024-01-11T02:11:27;16;13;
49064;PMS5003;34876;51.464;-0.150;2024-01-11T02:13:56;11;11;
49064;PMS5003;34876;51.464;-0.150;2024-01-11T02:16:25;13;13;
49064;PMS5003;34876;51.464;-0.150;2024-01-11T02:18:53;14;14;
49064;PMS5003;34876;51.464;-0.150;2024-01-11T02:21:24;13;11;
49064;PMS5003;34876;51.464;-0.150;2024-01-11T02:24:02;13;10;
49064;PMS5003;34876;51.464;-0.150;2024-01-11T02:26:30;16;12;
49064;PMS5003;34876;51.464;-0.150;2024-01-11T02:29:00;11;11;
49064;PMS5003;34876;51.464;-0.150;2024-01-11T02:31:30;14;14;
49064;PMS5003;34876;51.464;-0.150;2024-01-11T02:34:00;14;14;
49064;PMS5003;34876;51.464;-0.150;2024-01-11T02:36:28;10;10;
49064;PMS5003;34876;51.464;-0.150;2024-01-11T02:38:58;9;9;
49064;PMS5003;34876;51.464;-0.150;2024-01-11T02:41:27;14;14;
49064;PMS5003;34876;51.464;-0.150;2024-01-11T02:43:56;13;13;
49064;PMS5003;34876;51.464;-0.150;2024-01-11T02:46:29;11;11;
49064;PMS5003;34876;51.464;-0.150;2024-01-11T02:49:00;10;10;
49064;PMS5003;34876;51.464;-0.150;2024-01-11T02:51:34;12;12;
49064;PMS5003;34876;51.464;-0.150;2024-01-11T02:54:03;12;12;
49064;PMS5003;34876;51.464;-0.150;2024-01-11T02:56:49;12;11;
49064;PMS5003;34876;51.464;-0.150;2024-01-11T02:59:21;11;11;
49064;PMS5003;34876;51.464;-0.150;2024-01-11T03:02:10;12;12;
49064;PMS5003;34876;51.464;-0.150;2024-01-11T03:04:39;22;20;
49064;PMS5003;34876;51.464;-0.150;2024-01-11T03:07:08;17;15;
49064;PMS5003;34876;51.464;-0.150;2024-01-11T03:09:37;11;10;
49064;PMS5003;34876;51.464;-0.150;2024-01-11T03:12:07;11;10;
49064;PMS5003;34876;51.464;-0.150;2024-01-11T03:14:37;13;13;
49064;PMS5003;34876;51.464;-0.150;2024-01-11T03:17:06;13;11;
49064;PMS5003;34876;51.464;-0.150;2024-01-11T03:19:38;12;12;
49064;PMS5003;34876;51.464;-0.150;2024-01-11T03:22:08;12;11;
49064;PMS5003;34876;51.464;-0.150;2024-01-11T03:24:38;15;15;
49064;PMS5003;34876;51.464;-0.150;2024-01-11T03:27:06;13;13;
49064;PMS5003;34876;51.464;-0.150;2024-01-11T03:29:35;15;13;
49064;PMS5003;34876;51.464;-0.150;2024-01-11T03:32:05;11;11;
49064;PMS5003;34876;51.464;-0.150;2024-01-11T03:34:34;13;13;
49064;PMS5003;34876;51.464;-0.150;2024-01-11T03:37:03;11;10;
49064;PMS5003;34876;51.464;-0.150;2024-01-11T03:39:33;14;13;
49064;PMS5003;34876;51.464;-0.150;2024-01-11T03:42:02;15;11;
49064;PMS5003;34876;51.464;-0.150;2024-01-11T03:44:32;14;12;
49064;PMS5003;34876;51.464;-0.150;2024-01-11T03:47:01;15;13;
49064;PMS5003;34876;51.464;-0.150;2024-01-11T03:49:30;15;13;
49064;PMS5003;34876;51.464;-0.150;2024-01-11T03:51:59;19;19;
49064;PMS5003;34876;51.464;-0.150;2024-01-11T03:54:29;23;18;
49064;PMS5003;34876;51.464;-0.150;2024-01-11T03:56:59;22;21;
49064;PMS5003;34876;51.464;-0.150;2024-01-11T03:59:28;18;18;
49064;PMS5003;34876;51.464;-0.150;2024-01-11T04:01:57;21;19;
49064;PMS5003;34876;51.464;-0.150;2024-01-11T04:04:26;23;16;
49064;PMS5003;34876;51.464;-0.150;2024-01-11T04:06:56;19;17;
49064;PMS5003;34876;51.464;-0.150;2024-01-11T04:09:26;15;15;
49064;PMS5003;34876;51.464;-0.150;2024-01-11T04:11:55;20;17;
49064;PMS5003;34876;51.464;-0.150;2024-01-11T04:14:25;20;17;
49064;PMS5003;34876;51.464;-0.150;2024-01-11T04:16:55;17;15;
49064;PMS5003;34876;51.464;-0.150;2024-01-11T04:19:25;13;13;
49064;PMS5003;34876;51.464;-0.150;2024-01-11T04:21:53;18;15;
49064;PMS5003;34876;51.464;-0.150;2024-01-11T04:24:22;14;12;
49064;PMS5003;34876;51.464;-0.150;2024-01-11T04:26:51;13;12;
49064;PMS5003;34876;51.464;-0.150;2024-01-11T04:29:21;17;14;
49064;PMS5003;34876;51.464;-0.150;2024-01-11T04:31:50;16;14;
49064;PMS5003;34876;51.464;-0.150;2024-01-11T04:34:19;13;12;
49064;PMS5003;34876;51.464;-0.150;2024-01-11T04:36:49;12;12;
49064;PMS5003;34876;51.464;-0.150;2024-01-11T04:39:18;17;14;
49064;PMS5003;34876;51.464;-0.150;2024-01-11T04:41:47;15;15;
49064;PMS5003;34876;51.464;-0.150;2024-01-11T04:44:17;16;15;
49064;PMS5003;34876;51.464;-0.150;2024-01-11T04:46:47;15;14;
49064;PMS5003;34876;51.464;-0.150;2024-01-11T04:49:16;13;13;
49064;PMS5003;34876;51.464;-0.150;2024-01-11T04:51:46;12;12;
49064;PMS5003;34876;51.464;-0.150;2024-01-11T04:54:15;10;10;
49064;PMS5003;34876;51.464;-0.150;2024-01-11T04:56:45;13;11;
49064;PMS5003;34876;51.464;-0.150;2024-01-11T04:59:15;16;13;
49064;PMS5003;34876;51.464;-0.150;2024-01-11T05:01:45;14;13;
49064;PMS5003;34876;51.464;-0.150;2024-01-11T05:04:14;19;14;
49064;PMS5003;34876;51.464;-0.150;2024-01-11T05:06:43;14;14;
49064;PMS5003;34876;51.464;-0.150;2024-01-11T05:09:12;14;13;
49064;PMS5003;34876;51.464;-0.150;2024-01-11T05:11:42;13;13;
49064;PMS5003;34876;51.464;-0.150;2024-01-11T05:14:11;12;11;
49064;PMS5003;34876;51.464;-0.150;2024-01-11T05:16:40;11;11;
49064;PMS5003;34876;51.464;-0.150;2024-01-11T05:19:09;13;12;
49064;PMS5003;34876;51.464;-0.150;2024-01-11T05:21:39;11;11;
49064;PMS5003;34876;51.464;-0.150;2024-01-11T05:24:08;17;13;
49064;PMS5003;34876;51.464;-0.150;2024-01-11T05:26:37;14;12;
49064;PMS5003;34876;51.464;-0.150;2024-01-11T05:29:07;16;13;
49064;PMS5003;34876;51.464;-0.150;2024-01-11T05:31:36;16;13;
49064;PMS5003;34876;51.464;-0.150;2024-01-11T05:34:06;13;12;
49064;PMS5003;34876;51.464;-0.150;2024-01-11T05:36:36;14;12;
49064;PMS5003;34876;51.464;-0.150;2024-01-11T05:39:06;14;14;
49064;PMS5003;34876;51.464;-0.150;2024-01-11T05:41:35;15;14;
49064;PMS5003;34876;51.464;-0.150;2024-01-11T05:44:04;12;11;
49064;PMS5003;34876;51.464;-0.150;2024-01-11T05:46:35;11;11;
49064;PMS5003;34876;51.464;-0.150;2024-01-11T05:49:05;14;12;
49064;PMS5003;34876;51.464;-0.150;2024-01-11T05:51:34;12;11;
49064;PMS5003;34876;51.464;-0.150;2024-01-11T05:54:03;14;12;
49064;PMS5003;34876;51.464;-0.150;2024-01-11T05:56:32;12;11;
49064;PMS5003;34876;51.464;-0.150;2024-01-11T05:59:02;14;14;
49064;PMS5003;34876;51.464;-0.150;2024-01-11T06:01:31;14;13;
49064;PMS5003;34876;51.464;-0.150;2024-01-11T06:04:01;12;12;
49064;PMS5003;34876;51.464;-0.150;2024-01-11T06:06:32;16;12;
49064;PMS5003;34876;51.464;-0.150;2024-01-11T06:09:01;13;12;
49064;PMS5003;34876;51.464;-0.150;2024-01-11T06:11:30;17;14;
49064;PMS5003;34876;51.464;-0.150;2024-01-11T06:14:00;13;12;
49064;PMS5003;34876;51.464;-0.150;2024-01-11T06:16:29;11;10;
49064;PMS5003;34876;51.464;-0.150;2024-01-11T06:18:59;15;13;
49064;PMS5003;34876;51.464;-0.150;2024-01-11T06:21:29;11;10;
49064;PMS5003;34876;51.464;-0.150;2024-01-11T06:23:58;12;12;
49064;PMS5003;34876;51.464;-0.150;2024-01-11T06:26:28;10;10;
49064;PMS5003;34876;51.464;-0.150;2024-01-11T06:28:58;12;12;
49064;PMS5003;34876;51.464;-0.150;2024-01-11T06:31:27;16;15;
49064;PMS5003;34876;51.464;-0.150;2024-01-11T06:33:56;12;12;
49064;PMS5003;34876;51.464;-0.150;2024-01-11T06:36:26;14;13;
49064;PMS5003;34876;51.464;-0.150;2024-01-11T06:38:55;14;12;
49064;PMS5003;34876;51.464;-0.150;2024-01-11T06:41:25;12;11;
49064;PMS5003;34876;51.464;-0.150;2024-01-11T06:43:54;14;11;
49064;PMS5003;34876;51.464;-0.150;2024-01-11T06:46:23;16;15;
49064;PMS5003;34876;51.464;-0.150;2024-01-11T06:48:53;12;12;
49064;PMS5003;34876;51.464;-0.150;2024-01-11T06:51:22;12;12;
49064;PMS5003;34876;51.464;-0.150;2024-01-11T06:53:52;12;10;
49064;PMS5003;34876;51.464;-0.150;2024-01-11T06:56:21;14;14;
49064;PMS5003;34876;51.464;-0.150;2024-01-11T06:58:51;14;12;
49064;PMS5003;34876;51.464;-0.150;2024-01-11T07:01:20;12;12;
49064;PMS5003;34876;51.464;-0.150;2024-01-11T07:03:50;14;11;
49064;PMS5003;34876;51.464;-0.150;2024-01-11T07:06:19;18;17;
49064;PMS5003;34876;51.464;-0.150;2024-01-11T07:08:48;13;11;
49064;PMS5003;34876;51.464;-0.150;2024-01-11T07:11:18;13;12;
49064;PMS5003;34876;51.464;-0.150;2024-01-11T07:13:47;16;14;
49064;PMS5003;34876;51.464;-0.150;2024-01-11T07:16:16;16;16;
49064;PMS5003;34876;51.464;-0.150;2024-01-11T07:18:46;15;15;
49064;PMS5003;34876;51.464;-0.150;2024-01-11T07:21:19;12;12;
49064;PMS5003;34876;51.464;-0.150;2024-01-11T07:23:50;13;11;
49064;PMS5003;34876;51.464;-0.150;2024-01-11T07:26:19;18;14;
49064;PMS5003;34876;51.464;-0.150;2024-01-11T07:28:49;19;13;
49064;PMS5003;34876;51.464;-0.150;2024-01-11T07:31:19;14;12;
49064;PMS5003;34876;51.464;-0.150;2024-01-11T07:33:48;14;14;
49064;PMS5003;34876;51.464;-0.150;2024-01-11T07:36:18;16;16;
49064;PMS5003;34876;51.464;-0.150;2024-01-11T07:38:48;12;12;
49064;PMS5003;34876;51.464;-0.150;2024-01-11T07:41:18;13;12;
49064;PMS5003;34876;51.464;-0.150;2024-01-11T07:43:48;17;12;
49064;PMS5003;34876;51.464;-0.150;2024-01-11T07:46:18;15;15;
49064;PMS5003;34876;51.464;-0.150;2024-01-11T07:48:48;18;14;
49064;PMS5003;34876;51.464;-0.150;2024-01-11T07:51:18;13;13;
49064;PMS5003;34876;51.464;-0.150;2024-01-11T07:53:48;13;12;
49064;PMS5003;34876;51.464;-0.150;2024-01-11T07:56:18;13;13;
49064;PMS5003;34876;51.464;-0.150;2024-01-11T07:58:46;12;12;
49064;PMS5003;34876;51.464;-0.150;2024-01-11T08:01:16;16;13;
49064;PMS5003;34876;51.464;-0.150;2024-01-11T08:03:46;19;19;
49064;PMS5003;34876;51.464;-0.150;2024-01-11T08:06:16;21;19;
49064;PMS5003;34876;51.464;-0.150;2024-01-11T08:08:46;16;16;
49064;PMS5003;34876;51.464;-0.150;2024-01-11T08:11:16;13;11;
49064;PMS5003;34876;51.464;-0.150;2024-01-11T08:13:45;16;15;
49064;PMS5003;34876;51.464;-0.150;2024-01-11T08:16:15;16;16;
49064;PMS5003;34876;51.464;-0.150;2024-01-11T08:18:45;12;12;
49064;PMS5003;34876;51.464;-0.150;2024-01-11T08:21:14;13;12;
49064;PMS5003;34876;51.464;-0.150;2024-01-11T08:23:44;12;12;
49064;PMS5003;34876;51.464;-0.150;2024-01-11T08:26:14;12;12;
49064;PMS5003;34876;51.464;-0.150;2024-01-11T08:28:44;12;12;
49064;PMS5003;34876;51.464;-0.150;2024-01-11T08:31:13;13;12;
49064;PMS5003;34876;51.464;-0.150;2024-01-11T08:33:44;15;13;
49064;PMS5003;34876;51.464;-0.150;2024-01-11T08:36:13;14;13;
49064;PMS5003;34876;51.464;-0.150;2024-01-11T08:38:43;13;13;
49064;PMS5003;34876;51.464;-0.150;2024-01-11T08:41:13;13;13;
49064;PMS5003;34876;51.464;-0.150;2024-01-11T08:43:43;17;17;
49064;PMS5003;34876;51.464;-0.150;2024-01-11T08:46:22;14;13;
49064;PMS5003;34876;51.464;-0.150;2024-01-11T08:48:53;17;13;
49064;PMS5003;34876;51.464;-0.150;2024-01-11T08:51:22;17;13;
49064;PMS5003;34876;51.464;-0.150;2024-01-11T08:53:52;16;15;
49064;PMS5003;34876;51.464;-0.150;2024-01-11T08:56:22;16;14;
49064;PMS5003;34876;51.464;-0.150;2024-01-11T08:58:51;16;14;
49064;PMS5003;34876;51.464;-0.150;2024-01-11T09:01:20;17;16;
49064;PMS5003;34876;51.464;-0.150;2024-01-11T09:03:49;13;12;
49064;PMS5003;34876;51.464;-0.150;2024-01-11T09:06:17;11;10;
49064;PMS5003;34876;51.464;-0.150;2024-01-11T09:08:47;13;13;
49064;PMS5003;34876;51.464;-0.150;2024-01-11T09:11:16;15;12;
49064;PMS5003;34876;51.464;-0.150;2024-01-11T09:13:46;13;13;
49064;PMS5003;34876;51.464;-0.150;2024-01-11T09:16:14;18;18;
49064;PMS5003;34876;51.464;-0.150;2024-01-11T09:18:45;16;14;
49064;PMS5003;34876;51.464;-0.150;2024-01-11T09:21:15;15;13;
49064;PMS5003;34876;51.464;-0.150;2024-01-11T09:23:45;18;17;
49064;PMS5003;34876;51.464;-0.150;2024-01-11T09:26:15;15;14;
49064;PMS5003;34876;51.464;-0.150;2024-01-11T09:28:45;16;14;
49064;PMS5003;34876;51.464;-0.150;2024-01-11T09:31:14;15;15;
49064;PMS5003;34876;51.464;-0.150;2024-01-11T09:33:43;18;16;
49064;PMS5003;34876;51.464;-0.150;2024-01-11T09:36:13;16;14;
49064;PMS5003;34876;51.464;-0.150;2024-01-11T09:38:42;17;15;
49064;PMS5003;34876;51.464;-0.150;2024-01-11T09:41:12;15;15;
49064;PMS5003;34876;51.464;-0.150;2024-01-11T09:43:43;13;13;
49064;PMS5003;34876;51.464;-0.150;2024-01-11T09:46:14;15;15;
49064;PMS5003;34876;51.464;-0.150;2024-01-11T09:48:44;14;14;
49064;PMS5003;34876;51.464;-0.150;2024-01-11T09:51:14;16;14;
49064;PMS5003;34876;51.464;-0.150;2024-01-11T09:53:43;19;16;
49064;PMS5003;34876;51.464;-0.150;2024-01-11T09:56:12;14;13;
49064;PMS5003;34876;51.464;-0.150;2024-01-11T09:58:42;13;13;
49064;PMS5003;34876;51.464;-0.150;2024-01-11T10:01:15;17;14;
49064;PMS5003;34876;51.464;-0.150;2024-01-11T10:03:44;16;16;
49064;PMS5003;34876;51.464;-0.150;2024-01-11T10:06:14;15;15;
49064;PMS5003;34876;51.464;-0.150;2024-01-11T10:08:43;14;13;
49064;PMS5003;34876;51.464;-0.150;2024-01-11T10:11:13;14;14;
49064;PMS5003;34876;51.464;-0.150;2024-01-11T10:13:42;15;13;
49064;PMS5003;34876;51.464;-0.150;2024-01-11T10:16:12;16;13;
49064;PMS5003;34876;51.464;-0.150;2024-01-11T10:18:42;16;15;
49064;PMS5003;34876;51.464;-0.150;2024-01-11T10:21:11;15;13;
49064;PMS5003;34876;51.464;-0.150;2024-01-11T10:23:39;14;12;
49064;PMS5003;34876;51.464;-0.150;2024-01-11T10:26:08;16;14;
49064;PMS5003;34876;51.464;-0.150;2024-01-11T10:28:37;18;18;
49064;PMS5003;34876;51.464;-0.150;2024-01-11T10:31:07;17;17;
49064;PMS5003;34876;51.464;-0.150;2024-01-11T10:33:38;17;15;
49064;PMS5003;34876;51.464;-0.150;2024-01-11T10:36:09;14;13;
49064;PMS5003;34876;51.464;-0.150;2024-01-11T10:38:40;18;16;
49064;PMS5003;34876;51.464;-0.150;2024-01-11T10:41:10;19;19;
49064;PMS5003;34876;51.464;-0.150;2024-01-11T10:43:44;17;15;
49064;PMS5003;34876;51.464;-0.150;2024-01-11T10:46:15;14;14;
49064;PMS5003;34876;51.464;-0.150;2024-01-11T10:48:52;15;12;
49064;PMS5003;34876;51.464;-0.150;2024-01-11T10:51:25;15;13;
49064;PMS5003;34876;51.464;-0.150;2024-01-11T10:53:57;17;15;
49064;PMS5003;34876;51.464;-0.150;2024-01-11T10:56:28;20;15;
49064;PMS5003;34876;51.464;-0.150;2024-01-11T10:58:58;14;12;
49064;PMS5003;34876;51.464;-0.150;2024-01-11T11:01:29;16;15;
49064;PMS5003;34876;51.464;-0.150;2024-01-11T11:03:59;19;16;
49064;PMS5003;34876;51.464;-0.150;2024-01-11T11:06:32;16;14;
49064;PMS5003;34876;51.464;-0.150;2024-01-11T11:09:03;13;13;
49064;PMS5003;34876;51.464;-0.150;2024-01-11T11:11:34;15;15;
49064;PMS5003;34876;51.464;-0.150;2024-01-11T11:14:04;16;14;
49064;PMS5003;34876;51.464;-0.150;2024-01-11T11:16:35;13;13;
49064;PMS5003;34876;51.464;-0.150;2024-01-11T11:19:05;15;12;
49064;PMS5003;34876;51.464;-0.150;2024-01-11T11:21:41;15;15;
49064;PMS5003;34876;51.464;-0.150;2024-01-11T11:24:11;15;15;
49064;PMS5003;34876;51.464;-0.150;2024-01-11T11:26:41;18;18;
49064;PMS5003;34876;51.464;-0.150;2024-01-11T11:29:12;16;16;
49064;PMS5003;34876;51.464;-0.150;2024-01-11T11:31:44;17;14;
49064;PMS5003;34876;51.464;-0.150;2024-01-11T11:34:14;18;14;
49064;PMS5003;34876;51.464;-0.150;2024-01-11T11:36:47;17;15;
49064;PMS5003;34876;51.464;-0.150;2024-01-11T11:39:19;21;16;
49064;PMS5003;34876;51.464;-0.150;2024-01-11T11:41:49;17;15;
49064;PMS5003;34876;51.464;-0.150;2024-01-11T11:44:18;14;12;
49064;PMS5003;34876;51.464;-0.150;2024-01-11T11:46:48;16;16;
49064;PMS5003;34876;51.464;-0.150;2024-01-11T11:49:18;15;14;
49064;PMS5003;34876;51.464;-0.150;2024-01-11T11:51:48;18;18;
49064;PMS5003;34876;51.464;-0.150;2024-01-11T11:54:18;13;13;
49064;PMS5003;34876;51.464;-0.150;2024-01-11T11:56:48;18;15;
49064;PMS5003;34876;51.464;-0.150;2024-01-11T11:59:18;16;16;
49064;PMS5003;34876;51.464;-0.150;2024-01-11T12:01:48;16;15;
49064;PMS5003;34876;51.464;-0.150;2024-01-11T12:04:19;12;10;
49064;PMS5003;34876;51.464;-0.150;2024-01-11T12:06:49;15;15;
49064;PMS5003;34876;51.464;-0.150;2024-01-11T12:09:19;15;14;
49064;PMS5003;34876;51.464;-0.150;2024-01-11T12:11:49;21;16;
49064;PMS5003;34876;51.464;-0.150;2024-01-11T12:14:19;15;14;
49064;PMS5003;34876;51.464;-0.150;2024-01-11T12:16:55;19;15;
49064;PMS5003;34876;51.464;-0.150;2024-01-11T12:19:25;15;15;
49064;PMS5003;34876;51.464;-0.150;2024-01-11T12:21:56;16;15;
49064;PMS5003;34876;51.464;-0.150;2024-01-11T12:24:26;16;13;
49064;PMS5003;34876;51.464;-0.150;2024-01-11T12:26:55;15;15;
49064;PMS5003;34876;51.464;-0.150;2024-01-11T12:29:28;18;18;
49064;PMS5003;34876;51.464;-0.150;2024-01-11T12:32:02;15;15;
49064;PMS5003;34876;51.464;-0.150;2024-01-11T12:34:32;16;15;
49064;PMS5003;34876;51.464;-0.150;2024-01-11T12:37:01;15;15;
49064;PMS5003;34876;51.464;-0.150;2024-01-11T12:39:30;15;15;
49064;PMS5003;34876;51.464;-0.150;2024-01-11T12:42:00;15;15;
49064;PMS5003;34876;51.464;-0.150;2024-01-11T12:44:30;22;19;
49064;PMS5003;34876;51.464;-0.150;2024-01-11T12:46:59;17;17;
49064;PMS5003;34876;51.464;-0.150;2024-01-11T12:49:29;14;12;
49064;PMS5003;34876;51.464;-0.150;2024-01-11T12:51:58;17;16;
49064;PMS5003;34876;51.464;-0.150;2024-01-11T12:54:28;16;14;
49064;PMS5003;34876;51.464;-0.150;2024-01-11T12:57:01;18;14;
49064;PMS5003;34876;51.464;-0.150;2024-01-11T12:59:30;15;15;
49064;PMS5003;34876;51.464;-0.150;2024-01-11T13:02:00;16;14;
49064;PMS5003;34876;51.464;-0.150;2024-01-11T13:04:29;13;12;
49064;PMS5003;34876;51.464;-0.150;2024-01-11T13:06:59;17;16;
49064;PMS5003;34876;51.464;-0.150;2024-01-11T13:09:29;16;14;
49064;PMS5003;34876;51.464;-0.150;2024-01-11T13:11:58;15;15;
49064;PMS5003;34876;51.464;-0.150;2024-01-11T13:14:27;15;13;
49064;PMS5003;34876;51.464;-0.150;2024-01-11T13:16:57;15;15;
49064;PMS5003;34876;51.464;-0.150;2024-01-11T13:19:26;16;15;
49064;PMS5003;34876;51.464;-0.150;2024-01-11T13:21:55;14;13;
49064;PMS5003;34876;51.464;-0.150;2024-01-11T13:24:25;12;12;
49064;PMS5003;34876;51.464;-0.150;2024-01-11T13:26:55;13;12;
49064;PMS5003;34876;51.464;-0.150;2024-01-11T13:29:25;16;13;
49064;PMS5003;34876;51.464;-0.150;2024-01-11T13:31:54;14;12;
49064;PMS5003;34876;51.464;-0.150;2024-01-11T13:34:23;15;15;
49064;PMS5003;34876;51.464;-0.150;2024-01-11T13:36:53;20;16;
49064;PMS5003;34876;51.464;-0.150;2024-01-11T13:39:22;11;10;
49064;PMS5003;34876;51.464;-0.150;2024-01-11T13:41:51;14;11;
49064;PMS5003;34876;51.464;-0.150;2024-01-11T13:44:21;18;16;
49064;PMS5003;34876;51.464;-0.150;2024-01-11T13:46:50;17;14;
49064;PMS5003;34876;51.464;-0.150;2024-01-11T13:49:20;14;12;
49064;PMS5003;34876;51.464;-0.150;2024-01-11T13:51:50;16;14;
49064;PMS5003;34876;51.464;-0.150;2024-01-11T13:54:19;11;11;
49064;PMS5003;34876;51.464;-0.150;2024-01-11T13:56:49;14;13;
49064;PMS5003;34876;51.464;-0.150;2024-01-11T13:59:20;20;16;
49064;PMS5003;34876;51.464;-0.150;2024-01-11T14:01:50;13;13;
49064;PMS5003;34876;51.464;-0.150;2024-01-11T14:04:20;13;12;
49064;PMS5003;34876;51.464;-0.150;2024-01-11T14:06:50;16;14;
49064;PMS5003;34876;51.464;-0.150;2024-01-11T14:09:19;16;15;
49064;PMS5003;34876;51.464;-0.150;2024-01-11T14:11:48;15;13;
49064;PMS5003;34876;51.464;-0.150;2024-01-11T14:14:18;11;11;
49064;PMS5003;34876;51.464;-0.150;2024-01-11T14:16:48;12;12;
49064;PMS5003;34876;51.464;-0.150;2024-01-11T14:19:18;14;13;
49064;PMS5003;34876;51.464;-0.150;2024-01-11T14:21:47;15;12;
49064;PMS5003;34876;51.464;-0.150;2024-01-11T14:24:16;11;11;
49064;PMS5003;34876;51.464;-0.150;2024-01-11T14:26:47;9;8;
49064;PMS5003;34876;51.464;-0.150;2024-01-11T14:29:17;15;15;
49064;PMS5003;34876;51.464;-0.150;2024-01-11T14:31:47;12;12;
49064;PMS5003;34876;51.464;-0.150;2024-01-11T14:34:16;11;11;
49064;PMS5003;34876;51.464;-0.150;2024-01-11T14:36:46;14;11;
49064;PMS5003;34876;51.464;-0.150;2024-01-11T14:39:15;16;13;
49064;PMS5003;34876;51.464;-0.150;2024-01-11T14:41:44;14;13;
49064;PMS5003;34876;51.464;-0.150;2024-01-11T14:44:13;10;10;
49064;PMS5003;34876;51.464;-0.150;2024-01-11T14:46:43;14;13;
49064;PMS5003;34876;51.464;-0.150;2024-01-11T14:49:14;15;13;
49064;PMS5003;34876;51.464;-0.150;2024-01-11T14:51:43;13;12;
49064;PMS5003;34876;51.464;-0.150;2024-01-11T14:54:13;12;12;
49064;PMS5003;34876;51.464;-0.150;2024-01-11T14:56:42;17;16;
49064;PMS5003;34876;51.464;-0.150;2024-01-11T14:59:12;16;15;
49064;PMS5003;34876;51.464;-0.150;2024-01-11T15:01:42;15;13;
49064;PMS5003;34876;51.464;-0.150;2024-01-11T15:04:12;14;14;
49064;PMS5003;34876;51.464;-0.150;2024-01-11T15:06:41;10;10;
49064;PMS5003;34876;51.464;-0.150;2024-01-11T15:09:11;12;12;
49064;PMS5003;34876;51.464;-0.150;2024-01-11T15:11:40;13;12;
49064;PMS5003;34876;51.464;-0.150;2024-01-11T15:14:10;11;10;
49064;PMS5003;34876;51.464;-0.150;2024-01-11T15:16:39;12;12;
49064;PMS5003;34876;51.464;-0.150;2024-01-11T15:19:09;13;11;
49064;PMS5003;34876;51.464;-0.150;2024-01-11T15:21:39;12;12;
49064;PMS5003;34876;51.464;-0.150;2024-01-11T15:24:08;12;10;
49064;PMS5003;34876;51.464;-0.150;2024-01-11T15:26:36;14;14;
49064;PMS5003;34876;51.464;-0.150;2024-01-11T15:29:07;14;13;
49064;PMS5003;34876;51.464;-0.150;2024-01-11T15:31:37;17;16;
49064;PMS5003;34876;51.464;-0.150;2024-01-11T15:34:05;15;12;
49064;PMS5003;34876;51.464;-0.150;2024-01-11T15:36:35;11;11;
49064;PMS5003;34876;51.464;-0.150;2024-01-11T15:39:05;13;12;
49064;PMS5003;34876;51.464;-0.150;2024-01-11T15:41:34;14;13;
49064;PMS5003;34876;51.464;-0.150;2024-01-11T15:44:04;13;13;
49064;PMS5003;34876;51.464;-0.150;2024-01-11T15:46:33;11;10;
49064;PMS5003;34876;51.464;-0.150;2024-01-11T15:49:04;13;11;
49064;PMS5003;34876;51.464;-0.150;2024-01-11T15:51:34;10;10;
49064;PMS5003;34876;51.464;-0.150;2024-01-11T15:54:04;13;13;
49064;PMS5003;34876;51.464;-0.150;2024-01-11T15:56:33;11;10;
49064;PMS5003;34876;51.464;-0.150;2024-01-11T15:59:03;11;11;
49064;PMS5003;34876;51.464;-0.150;2024-01-11T16:01:33;10;10;
49064;PMS5003;34876;51.464;-0.150;2024-01-11T16:04:03;12;10;
49064;PMS5003;34876;51.464;-0.150;2024-01-11T16:06:32;13;13;
49064;PMS5003;34876;51.464;-0.150;2024-01-11T16:09:03;12;12;
49064;PMS5003;34876;51.464;-0.150;2024-01-11T16:11:32;10;10;
49064;PMS5003;34876;51.464;-0.150;2024-01-11T16:14:02;9;9;
49064;PMS5003;34876;51.464;-0.150;2024-01-11T16:16:36;10;7;
49064;PMS5003;34876;51.464;-0.150;2024-01-11T16:19:06;13;10;
49064;PMS5003;34876;51.464;-0.150;2024-01-11T16:21:36;12;11;
49064;PMS5003;34876;51.464;-0.150;2024-01-11T16:24:06;15;11;